Airfield :
LOGIN :

Register | Disclaimer

   EN    FR    IT 

 










Legend :    VFR   Marginal VFR   IFR   Intensive IFR   Very Intensive IFR
Visi :
Ceiling :
>= 8 km
>= 3000ft
5 to 8 km
1000 to 3000 ft
1500m to 5 km
500 to 1000 ft
800 to 1500m
200 to 500 ft
< 800m
< 200 ft
Symbols :   Thunderstorms  Fog  Heavy snow  Heavy precipitations  Wind > 20 kt
SIGMETs :     Misc.  Thunderstorms  Icing  Turbulence  Mountain Waves  Volcanic Ashes







- Airport Elevation : 160 ft
- IATA code : FMO


EDDG - Münster Osnabrück Int.

CURRENT METAR :
  • 231920Z 28009KT 9999 FEW008 SCT060 BKN100 09/08 Q1017 NOSIG

EXPIRED METARs :
  • 231850Z 29009KT 9999 SCT007 BKN050 09/08 Q1016 NOSIG
  • 231820Z 29008KT 9999 SCT009 BKN070 09/08 Q1015 NOSIG
  • 231750Z 29006KT 260V320 9999 -RA SCT008 SCT042 BKN060 09/08 Q1014 NOSIG
  • 231720Z 31008KT 280V350 9999 -RA FEW010 SCT035 BKN060 09/08 Q1014 NOSIG
  • 231650Z 32008KT 290V360 9999 -RA FEW010 SCT035 BKN060 09/08 Q1013 NOSIG

TAF TAF EDDG
Valid from the 23 at 18:00 until the 24 at 18:00 UTC


231700Z 2318/2418 29008KT 9999 FEW010 BKN030
PROB30
TEMPO 2318/2321 4000 -RA BR BKN008
BECMG 2407/2410 30015G25KT
PROB30
TEMPO 2411/2416 SHRA BKN030CB
BECMG 2414/2417 29005KT
No reported NOTAMs for that airfield.
4 SIGMETs reported for the Langen FIR (EDGG) :
 
Squall lined thunderstorms
EDGG SIGMET 9 VALID 231730/231930 EDZF
EDGG LANGEN FIR SQL TS OBS APRX 50NM WID LINE BTN N4812 E00718 - N4842 E00902 - N4904 E01017 - N4919 E01118 TOP FL350 MOV SE NC=
Severe turbulence
EDGG SIGMET 8 VALID 231700/232000 EDZF
EDGG LANGEN FIR SEV TURB FCST WI N4858 E01021 - N4825 E00944 - N4741 E00939 - N4733 E00748 - N4803 E00754 - N4832 E00807 - N4854 E00826 - N4858 E01021 SFC/FL100 MOV E WKN=
Severe turbulence
EDGG SIGMET 7 VALID 231700/232000 EDZF
EDGG LANGEN FIR SEV TURB FCST WI N5048 E01044 - N4921 E01105 - N4858 E01017 - N4856 E00809 - N4901 E00710 - N4951 E00829 - N5029 E00942 - N5048 E01044 SFC/FL060 MOV E WKN=
Severe turbulence
EDGG SIGMET 10 VALID 231730/232130 EDZF
EDGG LANGEN FIR SEV TURB FCST WI N5204 E00901 - N5127 E00910 - N5124 E01046 - N5030 E01048 - N4920 E00744 - N5034 E00627 - N5120 E00713 - N5204 E00901 FL160/245 MOV E WKN=



MET'MAP, your aeronautical weather chart ! - Copyright ORBIFLY December 2007 - Disclaimer

ORBIFLY MET'MAP TEAM :

Programming & Development : Alexandra Zaïnal
Concept & Development : Baudouin d'Aumeries
Co-Development & Prog : Marc-Olivier Méhu
Technical & hardware support : Manuel Goepfert

Contact : metmap@orbifly.com




SOURCES & CREDITS :

   NOAA